sensor_id;sensor_type;location;lat;lon;timestamp;P1;durP1;ratioP1;P2;durP2;ratioP2
29030;SDS011;16122;50.236;11.734;2023-03-16T00:00:14;1.50;;;1.30;;
29030;SDS011;16122;50.236;11.734;2023-03-16T00:02:41;1.47;;;1.30;;
29030;SDS011;16122;50.236;11.734;2023-03-16T00:05:10;1.07;;;0.97;;
29030;SDS011;16122;50.236;11.734;2023-03-16T00:07:38;1.67;;;1.33;;
29030;SDS011;16122;50.236;11.734;2023-03-16T00:10:06;1.00;;;0.90;;
29030;SDS011;16122;50.236;11.734;2023-03-16T00:12:32;3.00;;;1.20;;
29030;SDS011;16122;50.236;11.734;2023-03-16T00:14:59;1.30;;;1.10;;
29030;SDS011;16122;50.236;11.734;2023-03-16T00:17:25;1.60;;;1.30;;
29030;SDS011;16122;50.236;11.734;2023-03-16T00:19:52;2.13;;;1.60;;
29030;SDS011;16122;50.236;11.734;2023-03-16T00:22:26;1.00;;;1.00;;
29030;SDS011;16122;50.236;11.734;2023-03-16T00:24:53;1.37;;;1.13;;
29030;SDS011;16122;50.236;11.734;2023-03-16T00:27:20;1.93;;;1.33;;
29030;SDS011;16122;50.236;11.734;2023-03-16T00:29:47;1.60;;;1.10;;
29030;SDS011;16122;50.236;11.734;2023-03-16T00:32:15;1.10;;;1.00;;
29030;SDS011;16122;50.236;11.734;2023-03-16T00:34:43;1.30;;;1.20;;
29030;SDS011;16122;50.236;11.734;2023-03-16T00:37:10;1.80;;;1.20;;
29030;SDS011;16122;50.236;11.734;2023-03-16T00:39:43;1.43;;;1.00;;
29030;SDS011;16122;50.236;11.734;2023-03-16T00:42:12;1.03;;;0.90;;
29030;SDS011;16122;50.236;11.734;2023-03-16T00:44:39;1.27;;;1.17;;
29030;SDS011;16122;50.236;11.734;2023-03-16T00:47:08;1.20;;;1.10;;
29030;SDS011;16122;50.236;11.734;2023-03-16T00:49:38;1.10;;;1.03;;
29030;SDS011;16122;50.236;11.734;2023-03-16T00:52:07;1.10;;;1.00;;
29030;SDS011;16122;50.236;11.734;2023-03-16T00:54:33;2.40;;;1.10;;
29030;SDS011;16122;50.236;11.734;2023-03-16T00:56:59;2.20;;;1.07;;
29030;SDS011;16122;50.236;11.734;2023-03-16T00:59:26;1.10;;;1.00;;
29030;SDS011;16122;50.236;11.734;2023-03-16T01:01:53;1.00;;;0.90;;
29030;SDS011;16122;50.236;11.734;2023-03-16T01:04:20;1.07;;;0.90;;
29030;SDS011;16122;50.236;11.734;2023-03-16T01:06:46;1.23;;;1.13;;
29030;SDS011;16122;50.236;11.734;2023-03-16T01:09:12;1.63;;;1.53;;
29030;SDS011;16122;50.236;11.734;2023-03-16T01:11:39;1.23;;;0.90;;
29030;SDS011;16122;50.236;11.734;2023-03-16T01:14:09;1.40;;;1.30;;
29030;SDS011;16122;50.236;11.734;2023-03-16T01:16:35;1.50;;;1.37;;
29030;SDS011;16122;50.236;11.734;2023-03-16T01:19:01;2.53;;;1.40;;
29030;SDS011;16122;50.236;11.734;2023-03-16T01:21:27;1.20;;;1.10;;
29030;SDS011;16122;50.236;11.734;2023-03-16T01:23:53;1.30;;;1.07;;
29030;SDS011;16122;50.236;11.734;2023-03-16T01:26:19;1.40;;;1.30;;
29030;SDS011;16122;50.236;11.734;2023-03-16T01:28:47;1.20;;;1.03;;
29030;SDS011;16122;50.236;11.734;2023-03-16T01:31:13;1.53;;;1.43;;
29030;SDS011;16122;50.236;11.734;2023-03-16T01:33:41;1.10;;;1.00;;
29030;SDS011;16122;50.236;11.734;2023-03-16T01:36:13;2.40;;;1.23;;
29030;SDS011;16122;50.236;11.734;2023-03-16T01:38:47;1.10;;;1.00;;
29030;SDS011;16122;50.236;11.734;2023-03-16T01:41:14;0.93;;;0.90;;
29030;SDS011;16122;50.236;11.734;2023-03-16T01:43:41;1.17;;;1.07;;
29030;SDS011;16122;50.236;11.734;2023-03-16T01:57:23;5.40;;;1.23;;
29030;SDS011;16122;50.236;11.734;2023-03-16T01:59:58;2.20;;;1.10;;
29030;SDS011;16122;50.236;11.734;2023-03-16T02:02:39;1.00;;;0.93;;
29030;SDS011;16122;50.236;11.734;2023-03-16T02:05:21;1.30;;;1.10;;
29030;SDS011;16122;50.236;11.734;2023-03-16T02:07:52;1.33;;;1.13;;
29030;SDS011;16122;50.236;11.734;2023-03-16T02:10:23;1.20;;;1.20;;
29030;SDS011;16122;50.236;11.734;2023-03-16T02:12:52;1.33;;;1.23;;
29030;SDS011;16122;50.236;11.734;2023-03-16T02:15:19;1.20;;;1.10;;
29030;SDS011;16122;50.236;11.734;2023-03-16T02:17:45;1.30;;;1.00;;
29030;SDS011;16122;50.236;11.734;2023-03-16T02:23:11;0.93;;;0.93;;
29030;SDS011;16122;50.236;11.734;2023-03-16T02:28:28;1.07;;;1.03;;
29030;SDS011;16122;50.236;11.734;2023-03-16T02:30:59;1.20;;;1.10;;
29030;SDS011;16122;50.236;11.734;2023-03-16T02:33:26;1.20;;;1.00;;
29030;SDS011;16122;50.236;11.734;2023-03-16T02:35:54;1.20;;;1.10;;
29030;SDS011;16122;50.236;11.734;2023-03-16T02:38:20;1.00;;;1.00;;
29030;SDS011;16122;50.236;11.734;2023-03-16T02:40:54;1.20;;;1.10;;
29030;SDS011;16122;50.236;11.734;2023-03-16T02:43:26;1.17;;;0.90;;
29030;SDS011;16122;50.236;11.734;2023-03-16T02:46:18;1.17;;;1.00;;
29030;SDS011;16122;50.236;11.734;2023-03-16T02:49:07;1.60;;;0.93;;
29030;SDS011;16122;50.236;11.734;2023-03-16T02:51:41;1.37;;;1.10;;
29030;SDS011;16122;50.236;11.734;2023-03-16T02:54:08;1.30;;;1.20;;
29030;SDS011;16122;50.236;11.734;2023-03-16T02:56:34;1.33;;;1.00;;
29030;SDS011;16122;50.236;11.734;2023-03-16T02:59:00;1.10;;;1.00;;
29030;SDS011;16122;50.236;11.734;2023-03-16T03:01:26;1.13;;;1.03;;
29030;SDS011;16122;50.236;11.734;2023-03-16T03:03:53;1.10;;;1.00;;
29030;SDS011;16122;50.236;11.734;2023-03-16T03:06:19;1.00;;;0.90;;
29030;SDS011;16122;50.236;11.734;2023-03-16T03:08:45;0.90;;;0.90;;
29030;SDS011;16122;50.236;11.734;2023-03-16T03:11:11;1.00;;;0.90;;
29030;SDS011;16122;50.236;11.734;2023-03-16T03:13:37;1.10;;;1.00;;
29030;SDS011;16122;50.236;11.734;2023-03-16T03:16:04;1.17;;;1.10;;
29030;SDS011;16122;50.236;11.734;2023-03-16T03:18:30;1.27;;;0.93;;
29030;SDS011;16122;50.236;11.734;2023-03-16T03:20:56;0.83;;;0.83;;
29030;SDS011;16122;50.236;11.734;2023-03-16T03:23:22;1.30;;;1.00;;
29030;SDS011;16122;50.236;11.734;2023-03-16T03:25:48;0.90;;;0.90;;
29030;SDS011;16122;50.236;11.734;2023-03-16T03:28:15;0.90;;;0.90;;
29030;SDS011;16122;50.236;11.734;2023-03-16T03:30:42;0.90;;;0.90;;
29030;SDS011;16122;50.236;11.734;2023-03-16T03:33:08;0.90;;;0.90;;
29030;SDS011;16122;50.236;11.734;2023-03-16T03:35:34;0.90;;;0.90;;
29030;SDS011;16122;50.236;11.734;2023-03-16T03:37:59;1.00;;;0.90;;
29030;SDS011;16122;50.236;11.734;2023-03-16T03:40:26;0.83;;;0.83;;
29030;SDS011;16122;50.236;11.734;2023-03-16T03:42:58;0.90;;;0.90;;
29030;SDS011;16122;50.236;11.734;2023-03-16T03:45:25;1.00;;;1.00;;
29030;SDS011;16122;50.236;11.734;2023-03-16T03:47:50;0.90;;;0.90;;
29030;SDS011;16122;50.236;11.734;2023-03-16T03:50:19;0.90;;;0.80;;
29030;SDS011;16122;50.236;11.734;2023-03-16T03:53:05;0.97;;;0.97;;
29030;SDS011;16122;50.236;11.734;2023-03-16T03:55:39;0.83;;;0.83;;
29030;SDS011;16122;50.236;11.734;2023-03-16T03:58:05;1.00;;;0.80;;
29030;SDS011;16122;50.236;11.734;2023-03-16T04:00:31;0.97;;;0.87;;
29030;SDS011;16122;50.236;11.734;2023-03-16T04:02:57;0.90;;;0.90;;
29030;SDS011;16122;50.236;11.734;2023-03-16T04:05:30;1.03;;;0.90;;
29030;SDS011;16122;50.236;11.734;2023-03-16T04:07:57;0.70;;;0.70;;
29030;SDS011;16122;50.236;11.734;2023-03-16T04:10:24;1.10;;;0.90;;
29030;SDS011;16122;50.236;11.734;2023-03-16T04:12:54;1.40;;;1.07;;
29030;SDS011;16122;50.236;11.734;2023-03-16T04:15:21;1.10;;;1.00;;
29030;SDS011;16122;50.236;11.734;2023-03-16T04:18:02;1.00;;;0.90;;
29030;SDS011;16122;50.236;11.734;2023-03-16T04:20:28;1.10;;;1.00;;
29030;SDS011;16122;50.236;11.734;2023-03-16T04:22:54;0.97;;;0.87;;
29030;SDS011;16122;50.236;11.734;2023-03-16T04:25:23;0.90;;;0.90;;
29030;SDS011;16122;50.236;11.734;2023-03-16T04:27:54;0.80;;;0.80;;
29030;SDS011;16122;50.236;11.734;2023-03-16T04:30:24;1.00;;;0.90;;
29030;SDS011;16122;50.236;11.734;2023-03-16T04:32:54;0.93;;;0.83;;
29030;SDS011;16122;50.236;11.734;2023-03-16T04:35:20;1.47;;;0.90;;
29030;SDS011;16122;50.236;11.734;2023-03-16T04:37:50;1.40;;;1.10;;
29030;SDS011;16122;50.236;11.734;2023-03-16T04:40:19;1.17;;;1.07;;
29030;SDS011;16122;50.236;11.734;2023-03-16T04:42:51;1.13;;;0.97;;
29030;SDS011;16122;50.236;11.734;2023-03-16T04:45:18;0.90;;;0.90;;
29030;SDS011;16122;50.236;11.734;2023-03-16T04:47:46;0.90;;;0.90;;
29030;SDS011;16122;50.236;11.734;2023-03-16T04:50:13;0.90;;;0.90;;
29030;SDS011;16122;50.236;11.734;2023-03-16T04:52:41;1.70;;;1.33;;
29030;SDS011;16122;50.236;11.734;2023-03-16T04:55:07;1.33;;;1.23;;
29030;SDS011;16122;50.236;11.734;2023-03-16T04:57:34;1.90;;;1.30;;
29030;SDS011;16122;50.236;11.734;2023-03-16T05:00:02;1.20;;;0.90;;
29030;SDS011;16122;50.236;11.734;2023-03-16T05:02:49;2.80;;;1.30;;
29030;SDS011;16122;50.236;11.734;2023-03-16T05:05:16;1.23;;;1.13;;
29030;SDS011;16122;50.236;11.734;2023-03-16T05:07:43;1.00;;;1.00;;
29030;SDS011;16122;50.236;11.734;2023-03-16T05:10:10;1.37;;;1.27;;
29030;SDS011;16122;50.236;11.734;2023-03-16T05:12:38;1.80;;;1.20;;
29030;SDS011;16122;50.236;11.734;2023-03-16T05:15:05;1.83;;;1.30;;
29030;SDS011;16122;50.236;11.734;2023-03-16T05:17:54;2.07;;;1.53;;
29030;SDS011;16122;50.236;11.734;2023-03-16T05:20:20;1.70;;;1.20;;
29030;SDS011;16122;50.236;11.734;2023-03-16T05:22:50;1.37;;;1.27;;
29030;SDS011;16122;50.236;11.734;2023-03-16T05:25:24;2.67;;;1.33;;
29030;SDS011;16122;50.236;11.734;2023-03-16T05:27:52;2.50;;;1.47;;
29030;SDS011;16122;50.236;11.734;2023-03-16T05:30:42;2.93;;;1.37;;
29030;SDS011;16122;50.236;11.734;2023-03-16T05:33:12;1.87;;;1.30;;
29030;SDS011;16122;50.236;11.734;2023-03-16T05:35:39;2.87;;;1.10;;
29030;SDS011;16122;50.236;11.734;2023-03-16T05:38:09;1.20;;;1.00;;
29030;SDS011;16122;50.236;11.734;2023-03-16T05:40:37;5.70;;;1.67;;
29030;SDS011;16122;50.236;11.734;2023-03-16T05:43:12;1.60;;;1.50;;
29030;SDS011;16122;50.236;11.734;2023-03-16T05:45:44;2.00;;;1.57;;
29030;SDS011;16122;50.236;11.734;2023-03-16T05:48:13;2.30;;;1.40;;
29030;SDS011;16122;50.236;11.734;2023-03-16T05:50:43;1.63;;;1.30;;
29030;SDS011;16122;50.236;11.734;2023-03-16T05:53:11;1.77;;;1.30;;
29030;SDS011;16122;50.236;11.734;2023-03-16T05:55:38;1.60;;;1.17;;
29030;SDS011;16122;50.236;11.734;2023-03-16T05:58:07;2.77;;;1.23;;
29030;SDS011;16122;50.236;11.734;2023-03-16T06:00:36;2.67;;;1.43;;
29030;SDS011;16122;50.236;11.734;2023-03-16T06:03:20;1.13;;;1.03;;
29030;SDS011;16122;50.236;11.734;2023-03-16T06:05:47;2.90;;;1.40;;
29030;SDS011;16122;50.236;11.734;2023-03-16T06:08:15;1.47;;;1.17;;
29030;SDS011;16122;50.236;11.734;2023-03-16T06:10:47;1.50;;;1.30;;
29030;SDS011;16122;50.236;11.734;2023-03-16T06:13:15;4.53;;;1.30;;
29030;SDS011;16122;50.236;11.734;2023-03-16T06:15:41;1.30;;;1.20;;
29030;SDS011;16122;50.236;11.734;2023-03-16T06:18:09;1.33;;;1.20;;
29030;SDS011;16122;50.236;11.734;2023-03-16T06:20:35;1.63;;;1.50;;
29030;SDS011;16122;50.236;11.734;2023-03-16T06:23:01;1.73;;;1.40;;
29030;SDS011;16122;50.236;11.734;2023-03-16T06:25:28;1.30;;;1.20;;
29030;SDS011;16122;50.236;11.734;2023-03-16T06:27:54;1.20;;;1.10;;
29030;SDS011;16122;50.236;11.734;2023-03-16T06:30:20;1.97;;;1.00;;
29030;SDS011;16122;50.236;11.734;2023-03-16T06:32:46;1.53;;;1.37;;
29030;SDS011;16122;50.236;11.734;2023-03-16T06:35:13;1.30;;;1.20;;
29030;SDS011;16122;50.236;11.734;2023-03-16T06:37:49;1.20;;;1.10;;
29030;SDS011;16122;50.236;11.734;2023-03-16T06:40:35;1.50;;;1.40;;
29030;SDS011;16122;50.236;11.734;2023-03-16T06:43:01;1.50;;;1.40;;
29030;SDS011;16122;50.236;11.734;2023-03-16T06:45:28;2.10;;;1.10;;
29030;SDS011;16122;50.236;11.734;2023-03-16T06:47:55;1.50;;;1.40;;
29030;SDS011;16122;50.236;11.734;2023-03-16T06:50:21;1.40;;;1.27;;
29030;SDS011;16122;50.236;11.734;2023-03-16T06:52:47;1.40;;;1.30;;
29030;SDS011;16122;50.236;11.734;2023-03-16T06:55:13;1.30;;;1.20;;
29030;SDS011;16122;50.236;11.734;2023-03-16T06:57:43;1.33;;;1.23;;
29030;SDS011;16122;50.236;11.734;2023-03-16T07:00:11;1.90;;;1.43;;
29030;SDS011;16122;50.236;11.734;2023-03-16T07:02:39;1.27;;;1.17;;
29030;SDS011;16122;50.236;11.734;2023-03-16T07:05:09;1.20;;;1.10;;
29030;SDS011;16122;50.236;11.734;2023-03-16T07:07:39;1.57;;;1.13;;
29030;SDS011;16122;50.236;11.734;2023-03-16T07:10:09;1.43;;;1.00;;
29030;SDS011;16122;50.236;11.734;2023-03-16T07:12:39;2.13;;;1.30;;
29030;SDS011;16122;50.236;11.734;2023-03-16T07:15:06;1.30;;;1.20;;
29030;SDS011;16122;50.236;11.734;2023-03-16T07:17:34;0.80;;;0.80;;
29030;SDS011;16122;50.236;11.734;2023-03-16T07:20:02;2.30;;;1.20;;
29030;SDS011;16122;50.236;11.734;2023-03-16T07:22:35;1.73;;;1.23;;
29030;SDS011;16122;50.236;11.734;2023-03-16T07:25:03;1.20;;;0.90;;
29030;SDS011;16122;50.236;11.734;2023-03-16T07:27:29;1.20;;;1.10;;
29030;SDS011;16122;50.236;11.734;2023-03-16T07:29:58;1.83;;;1.00;;
29030;SDS011;16122;50.236;11.734;2023-03-16T07:32:30;0.90;;;0.90;;
29030;SDS011;16122;50.236;11.734;2023-03-16T07:34:57;1.33;;;1.23;;
29030;SDS011;16122;50.236;11.734;2023-03-16T07:37:24;1.33;;;1.23;;
29030;SDS011;16122;50.236;11.734;2023-03-16T07:39:52;1.30;;;1.20;;
29030;SDS011;16122;50.236;11.734;2023-03-16T07:42:18;1.83;;;1.40;;
29030;SDS011;16122;50.236;11.734;2023-03-16T07:44:52;2.13;;;1.00;;
29030;SDS011;16122;50.236;11.734;2023-03-16T07:47:17;1.70;;;0.97;;
29030;SDS011;16122;50.236;11.734;2023-03-16T07:49:44;1.30;;;1.20;;
29030;SDS011;16122;50.236;11.734;2023-03-16T07:52:10;2.23;;;1.23;;
29030;SDS011;16122;50.236;11.734;2023-03-16T07:54:39;1.63;;;1.20;;
29030;SDS011;16122;50.236;11.734;2023-03-16T07:57:06;1.63;;;1.30;;
29030;SDS011;16122;50.236;11.734;2023-03-16T07:59:41;1.63;;;1.07;;
29030;SDS011;16122;50.236;11.734;2023-03-16T08:02:17;1.53;;;1.07;;
29030;SDS011;16122;50.236;11.734;2023-03-16T08:04:46;2.40;;;1.00;;
29030;SDS011;16122;50.236;11.734;2023-03-16T08:07:13;1.30;;;0.97;;
29030;SDS011;16122;50.236;11.734;2023-03-16T08:09:51;1.20;;;0.90;;
29030;SDS011;16122;50.236;11.734;2023-03-16T08:12:22;1.47;;;1.10;;
29030;SDS011;16122;50.236;11.734;2023-03-16T08:14:48;1.80;;;1.30;;
29030;SDS011;16122;50.236;11.734;2023-03-16T08:17:18;1.00;;;0.90;;
29030;SDS011;16122;50.236;11.734;2023-03-16T08:19:45;1.60;;;1.10;;
29030;SDS011;16122;50.236;11.734;2023-03-16T08:22:11;1.90;;;1.33;;
29030;SDS011;16122;50.236;11.734;2023-03-16T08:24:41;1.20;;;1.10;;
29030;SDS011;16122;50.236;11.734;2023-03-16T08:27:09;1.63;;;1.00;;
29030;SDS011;16122;50.236;11.734;2023-03-16T08:29:39;1.20;;;1.10;;
29030;SDS011;16122;50.236;11.734;2023-03-16T08:32:09;4.47;;;1.30;;
29030;SDS011;16122;50.236;11.734;2023-03-16T08:34:41;5.03;;;1.33;;
29030;SDS011;16122;50.236;11.734;2023-03-16T08:37:07;1.60;;;1.50;;
29030;SDS011;16122;50.236;11.734;2023-03-16T08:39:34;2.90;;;1.30;;
29030;SDS011;16122;50.236;11.734;2023-03-16T08:42:04;2.10;;;1.50;;
29030;SDS011;16122;50.236;11.734;2023-03-16T08:44:55;1.53;;;1.20;;
29030;SDS011;16122;50.236;11.734;2023-03-16T08:47:25;2.03;;;0.90;;
29030;SDS011;16122;50.236;11.734;2023-03-16T08:49:52;1.30;;;1.10;;
29030;SDS011;16122;50.236;11.734;2023-03-16T08:52:18;1.90;;;1.23;;
29030;SDS011;16122;50.236;11.734;2023-03-16T08:54:43;2.27;;;1.40;;
29030;SDS011;16122;50.236;11.734;2023-03-16T08:57:09;1.33;;;1.20;;
29030;SDS011;16122;50.236;11.734;2023-03-16T08:59:36;1.43;;;1.10;;
29030;SDS011;16122;50.236;11.734;2023-03-16T09:02:02;1.20;;;1.10;;
29030;SDS011;16122;50.236;11.734;2023-03-16T09:04:28;2.07;;;1.10;;
29030;SDS011;16122;50.236;11.734;2023-03-16T09:06:54;1.57;;;1.20;;
29030;SDS011;16122;50.236;11.734;2023-03-16T09:09:20;1.10;;;0.90;;
29030;SDS011;16122;50.236;11.734;2023-03-16T09:11:46;1.10;;;1.00;;
29030;SDS011;16122;50.236;11.734;2023-03-16T09:14:14;3.10;;;1.50;;
29030;SDS011;16122;50.236;11.734;2023-03-16T09:16:40;1.80;;;1.10;;
29030;SDS011;16122;50.236;11.734;2023-03-16T09:19:06;1.10;;;0.90;;
29030;SDS011;16122;50.236;11.734;2023-03-16T09:21:32;2.20;;;1.20;;
29030;SDS011;16122;50.236;11.734;2023-03-16T09:24:00;2.23;;;0.90;;
29030;SDS011;16122;50.236;11.734;2023-03-16T09:26:26;3.13;;;1.43;;
29030;SDS011;16122;50.236;11.734;2023-03-16T09:28:52;1.70;;;1.10;;
29030;SDS011;16122;50.236;11.734;2023-03-16T09:31:19;1.30;;;1.20;;
29030;SDS011;16122;50.236;11.734;2023-03-16T09:33:46;3.33;;;1.43;;
29030;SDS011;16122;50.236;11.734;2023-03-16T09:36:13;2.40;;;0.80;;
29030;SDS011;16122;50.236;11.734;2023-03-16T09:38:39;1.47;;;1.27;;
29030;SDS011;16122;50.236;11.734;2023-03-16T09:41:14;2.50;;;1.10;;
29030;SDS011;16122;50.236;11.734;2023-03-16T09:44:15;1.20;;;0.90;;
29030;SDS011;16122;50.236;11.734;2023-03-16T09:46:53;1.80;;;1.23;;
29030;SDS011;16122;50.236;11.734;2023-03-16T09:49:23;1.30;;;1.00;;
29030;SDS011;16122;50.236;11.734;2023-03-16T09:52:01;2.70;;;1.30;;
29030;SDS011;16122;50.236;11.734;2023-03-16T09:57:27;3.53;;;1.10;;
29030;SDS011;16122;50.236;11.734;2023-03-16T09:59:57;1.77;;;1.10;;
29030;SDS011;16122;50.236;11.734;2023-03-16T10:02:45;2.37;;;1.50;;
29030;SDS011;16122;50.236;11.734;2023-03-16T10:05:22;1.50;;;1.10;;
29030;SDS011;16122;50.236;11.734;2023-03-16T10:18:51;1.73;;;1.20;;
29030;SDS011;16122;50.236;11.734;2023-03-16T10:21:30;1.80;;;1.20;;
29030;SDS011;16122;50.236;11.734;2023-03-16T10:24:00;2.10;;;1.47;;
29030;SDS011;16122;50.236;11.734;2023-03-16T10:26:30;3.57;;;1.23;;
29030;SDS011;16122;50.236;11.734;2023-03-16T10:29:05;1.80;;;1.70;;
29030;SDS011;16122;50.236;11.734;2023-03-16T10:31:37;2.83;;;1.40;;
29030;SDS011;16122;50.236;11.734;2023-03-16T10:34:05;2.13;;;1.17;;
29030;SDS011;16122;50.236;11.734;2023-03-16T10:36:33;5.77;;;1.60;;
29030;SDS011;16122;50.236;11.734;2023-03-16T10:39:03;2.83;;;1.20;;
29030;SDS011;16122;50.236;11.734;2023-03-16T10:41:35;3.53;;;1.30;;
29030;SDS011;16122;50.236;11.734;2023-03-16T10:46:38;3.17;;;1.40;;
29030;SDS011;16122;50.236;11.734;2023-03-16T10:49:19;1.80;;;1.30;;
29030;SDS011;16122;50.236;11.734;2023-03-16T10:51:54;2.87;;;1.03;;
29030;SDS011;16122;50.236;11.734;2023-03-16T10:54:28;2.20;;;1.20;;
29030;SDS011;16122;50.236;11.734;2023-03-16T10:56:57;1.80;;;0.93;;
29030;SDS011;16122;50.236;11.734;2023-03-16T10:59:27;5.13;;;1.40;;
29030;SDS011;16122;50.236;11.734;2023-03-16T11:02:06;2.10;;;1.87;;
29030;SDS011;16122;50.236;11.734;2023-03-16T11:04:40;2.17;;;1.93;;
29030;SDS011;16122;50.236;11.734;2023-03-16T11:07:06;4.20;;;2.17;;
29030;SDS011;16122;50.236;11.734;2023-03-16T11:09:39;4.67;;;1.80;;
29030;SDS011;16122;50.236;11.734;2023-03-16T11:12:20;4.70;;;2.37;;
29030;SDS011;16122;50.236;11.734;2023-03-16T11:14:47;2.27;;;1.97;;
29030;SDS011;16122;50.236;11.734;2023-03-16T11:20:04;3.20;;;2.03;;
29030;SDS011;16122;50.236;11.734;2023-03-16T11:22:39;3.17;;;2.13;;
29030;SDS011;16122;50.236;11.734;2023-03-16T11:25:13;3.57;;;2.07;;
29030;SDS011;16122;50.236;11.734;2023-03-16T11:30:47;2.37;;;1.87;;
29030;SDS011;16122;50.236;11.734;2023-03-16T11:33:15;3.03;;;2.13;;
29030;SDS011;16122;50.236;11.734;2023-03-16T11:40:56;3.67;;;2.17;;
29030;SDS011;16122;50.236;11.734;2023-03-16T11:51:55;5.13;;;1.80;;
29030;SDS011;16122;50.236;11.734;2023-03-16T12:17:17;4.20;;;1.70;;
29030;SDS011;16122;50.236;11.734;2023-03-16T12:22:52;3.07;;;2.10;;
29030;SDS011;16122;50.236;11.734;2023-03-16T12:25:25;1.60;;;1.50;;
29030;SDS011;16122;50.236;11.734;2023-03-16T12:28:01;4.30;;;1.87;;
29030;SDS011;16122;50.236;11.734;2023-03-16T12:33:09;2.50;;;1.40;;
29030;SDS011;16122;50.236;11.734;2023-03-16T12:41:19;5.47;;;2.10;;
29030;SDS011;16122;50.236;11.734;2023-03-16T12:43:59;9.40;;;2.70;;
29030;SDS011;16122;50.236;11.734;2023-03-16T12:46:51;5.07;;;2.10;;
29030;SDS011;16122;50.236;11.734;2023-03-16T12:49:31;5.63;;;2.50;;
29030;SDS011;16122;50.236;11.734;2023-03-16T12:52:02;7.50;;;2.90;;
29030;SDS011;16122;50.236;11.734;2023-03-16T12:54:30;4.80;;;2.10;;
29030;SDS011;16122;50.236;11.734;2023-03-16T12:56:59;6.23;;;2.17;;
29030;SDS011;16122;50.236;11.734;2023-03-16T12:59:34;3.57;;;2.40;;
29030;SDS011;16122;50.236;11.734;2023-03-16T13:02:03;7.60;;;2.63;;
29030;SDS011;16122;50.236;11.734;2023-03-16T13:07:07;7.07;;;2.60;;
29030;SDS011;16122;50.236;11.734;2023-03-16T13:09:46;7.73;;;2.43;;
29030;SDS011;16122;50.236;11.734;2023-03-16T13:12:31;6.77;;;2.70;;
29030;SDS011;16122;50.236;11.734;2023-03-16T13:15:01;9.23;;;2.37;;
29030;SDS011;16122;50.236;11.734;2023-03-16T13:17:41;6.47;;;2.27;;
29030;SDS011;16122;50.236;11.734;2023-03-16T13:22:49;8.83;;;2.87;;
29030;SDS011;16122;50.236;11.734;2023-03-16T13:25:38;6.83;;;2.30;;
29030;SDS011;16122;50.236;11.734;2023-03-16T13:28:05;4.30;;;2.90;;
29030;SDS011;16122;50.236;11.734;2023-03-16T13:30:35;5.67;;;2.50;;
29030;SDS011;16122;50.236;11.734;2023-03-16T13:33:20;8.83;;;2.50;;
29030;SDS011;16122;50.236;11.734;2023-03-16T13:35:46;5.17;;;2.73;;
29030;SDS011;16122;50.236;11.734;2023-03-16T13:38:16;6.03;;;2.37;;
29030;SDS011;16122;50.236;11.734;2023-03-16T13:40:44;6.00;;;2.40;;
29030;SDS011;16122;50.236;11.734;2023-03-16T13:43:16;11.27;;;3.80;;
29030;SDS011;16122;50.236;11.734;2023-03-16T13:45:45;7.40;;;3.73;;
29030;SDS011;16122;50.236;11.734;2023-03-16T13:48:13;9.03;;;2.83;;
29030;SDS011;16122;50.236;11.734;2023-03-16T13:50:40;4.90;;;2.17;;
29030;SDS011;16122;50.236;11.734;2023-03-16T13:53:15;6.27;;;2.53;;
29030;SDS011;16122;50.236;11.734;2023-03-16T13:55:54;7.10;;;2.90;;
29030;SDS011;16122;50.236;11.734;2023-03-16T13:58:27;4.20;;;1.93;;
29030;SDS011;16122;50.236;11.734;2023-03-16T14:00:58;7.87;;;2.57;;
29030;SDS011;16122;50.236;11.734;2023-03-16T14:03:32;4.73;;;2.07;;
29030;SDS011;16122;50.236;11.734;2023-03-16T14:06:00;8.23;;;2.60;;
29030;SDS011;16122;50.236;11.734;2023-03-16T14:08:28;5.13;;;2.17;;
29030;SDS011;16122;50.236;11.734;2023-03-16T14:10:54;6.07;;;2.67;;
29030;SDS011;16122;50.236;11.734;2023-03-16T14:15:54;7.23;;;2.30;;
29030;SDS011;16122;50.236;11.734;2023-03-16T14:19:07;4.60;;;2.00;;
29030;SDS011;16122;50.236;11.734;2023-03-16T14:21:23;6.73;;;2.57;;
29030;SDS011;16122;50.236;11.734;2023-03-16T14:23:51;7.97;;;2.07;;
29030;SDS011;16122;50.236;11.734;2023-03-16T14:26:20;7.53;;;2.33;;
29030;SDS011;16122;50.236;11.734;2023-03-16T14:29:20;3.63;;;2.20;;
29030;SDS011;16122;50.236;11.734;2023-03-16T14:31:42;2.87;;;1.37;;
29030;SDS011;16122;50.236;11.734;2023-03-16T14:37:03;3.70;;;2.00;;
29030;SDS011;16122;50.236;11.734;2023-03-16T14:39:36;2.90;;;1.60;;
29030;SDS011;16122;50.236;11.734;2023-03-16T14:42:04;3.30;;;2.30;;
29030;SDS011;16122;50.236;11.734;2023-03-16T14:44:38;4.23;;;1.67;;
29030;SDS011;16122;50.236;11.734;2023-03-16T14:47:05;2.30;;;1.73;;
29030;SDS011;16122;50.236;11.734;2023-03-16T14:49:33;3.00;;;2.03;;
29030;SDS011;16122;50.236;11.734;2023-03-16T14:52:04;4.43;;;1.60;;
29030;SDS011;16122;50.236;11.734;2023-03-16T14:54:32;2.47;;;2.17;;
29030;SDS011;16122;50.236;11.734;2023-03-16T14:57:02;2.77;;;1.33;;
29030;SDS011;16122;50.236;11.734;2023-03-16T14:59:30;4.53;;;2.23;;
29030;SDS011;16122;50.236;11.734;2023-03-16T15:01:56;3.60;;;1.60;;
29030;SDS011;16122;50.236;11.734;2023-03-16T15:04:25;3.40;;;1.90;;
29030;SDS011;16122;50.236;11.734;2023-03-16T15:06:55;4.77;;;1.67;;
29030;SDS011;16122;50.236;11.734;2023-03-16T15:09:40;4.17;;;1.90;;
29030;SDS011;16122;50.236;11.734;2023-03-16T15:12:13;3.87;;;2.17;;
29030;SDS011;16122;50.236;11.734;2023-03-16T15:14:40;7.80;;;1.60;;
29030;SDS011;16122;50.236;11.734;2023-03-16T15:17:25;3.40;;;1.80;;
29030;SDS011;16122;50.236;11.734;2023-03-16T15:19:52;3.10;;;1.47;;
29030;SDS011;16122;50.236;11.734;2023-03-16T15:22:20;3.83;;;1.50;;
29030;SDS011;16122;50.236;11.734;2023-03-16T15:24:52;3.93;;;1.70;;
29030;SDS011;16122;50.236;11.734;2023-03-16T15:27:20;3.20;;;1.50;;
29030;SDS011;16122;50.236;11.734;2023-03-16T15:29:49;5.60;;;1.50;;
29030;SDS011;16122;50.236;11.734;2023-03-16T15:32:15;4.03;;;1.70;;
29030;SDS011;16122;50.236;11.734;2023-03-16T15:34:41;3.00;;;1.40;;
29030;SDS011;16122;50.236;11.734;2023-03-16T15:37:11;2.93;;;1.30;;
29030;SDS011;16122;50.236;11.734;2023-03-16T15:39:39;3.33;;;1.43;;
29030;SDS011;16122;50.236;11.734;2023-03-16T15:42:15;5.27;;;1.83;;
29030;SDS011;16122;50.236;11.734;2023-03-16T15:44:43;2.77;;;1.63;;
29030;SDS011;16122;50.236;11.734;2023-03-16T15:47:10;3.00;;;1.50;;
29030;SDS011;16122;50.236;11.734;2023-03-16T15:49:36;2.60;;;1.10;;
29030;SDS011;16122;50.236;11.734;2023-03-16T15:52:03;3.10;;;1.53;;
29030;SDS011;16122;50.236;11.734;2023-03-16T15:54:34;2.23;;;1.37;;
29030;SDS011;16122;50.236;11.734;2023-03-16T15:57:01;2.20;;;1.10;;
29030;SDS011;16122;50.236;11.734;2023-03-16T15:59:30;1.63;;;1.20;;
29030;SDS011;16122;50.236;11.734;2023-03-16T16:02:00;2.20;;;1.40;;
29030;SDS011;16122;50.236;11.734;2023-03-16T16:04:27;8.80;;;2.40;;
29030;SDS011;16122;50.236;11.734;2023-03-16T16:06:53;3.40;;;1.30;;
29030;SDS011;16122;50.236;11.734;2023-03-16T16:09:20;6.00;;;1.43;;
29030;SDS011;16122;50.236;11.734;2023-03-16T16:11:46;2.80;;;1.27;;
29030;SDS011;16122;50.236;11.734;2023-03-16T16:14:15;3.20;;;1.67;;
29030;SDS011;16122;50.236;11.734;2023-03-16T16:16:44;2.20;;;1.13;;
29030;SDS011;16122;50.236;11.734;2023-03-16T16:19:14;2.20;;;1.37;;
29030;SDS011;16122;50.236;11.734;2023-03-16T16:21:40;2.23;;;1.23;;
29030;SDS011;16122;50.236;11.734;2023-03-16T16:24:07;2.10;;;1.20;;
29030;SDS011;16122;50.236;11.734;2023-03-16T16:26:37;2.80;;;1.40;;